Capitol Logistics 327


KCVG
Cincinnati/Northern Kentucky International Airport
Covington, Kentucky, US
KMIA
Miami International Airport
Miami, Florida, US

Activity Log

Date Flight Route Aircraft Duration
08/25/2020 CPX327 SILKS4 TRFWA HELUB Q118 ATL HONID Q81 ENDEW JUULI SSCOT5 B763 2h 23m
01/28/2020 CPX327 KENLN4 HYK VXV J43 ATL J89 OTK JUULI SSCOT5 B763 2h 20m
10/17/2019 CPX327 KENLN4 HYK VXV J43 ATL J89 OTK JUULI SSCOT5 B763 2h 25m
07/26/2019 CPX327 HYK VXV J46 AMG J45 OMN B763 2h 10m
12/23/2018 CPX335 KENLN4 HYK VXV J43 ATL J89 OTK JUULI SSCOT5 B752 2h 33m
11/07/2018 CPX335 KENLN4 HYK VXV J43 ATL J89 OTK JUULI SSCOT5 B752 2h 20m

Route Details

Aircraft Information
Primary: Boeing 767-300BDSF
Backup: Not Available
Route Data
Distance: 898nm
Sched. Duration: 2h 04m
Avg. Duration: 2h 22m (+17m)
Times Flown: 6
Recm'd Route: KENLN4 HYK VXV J43 ATL J89 OTK JUULI SSCOT5
Planned Altitude: 35,000ft
Origin Wx: KCVG 250952Z 05011KT 10SM BKN024 BKN036 OVC045 08/02 A3007 RMK AO2 SLP183 T00780022
Dest. Wx: KMIA 250953Z 09004KT 10SM -RA FEW018 FEW033 BKN075 OVC130 24/24 A2985 RMK AO2 LTG DSNT E SLP109 P0002 T02440239 $
Notes:

Financial History
Total Freight: 510,721lbs
Average Load: 85,120lbs/flt
Fuel Used: 142,903lbs
Avg. Fuel Used: 23,817lbs/flt
Fuel Expense: $132,900
Avg. Fuel Expense: $22,150
Avg. Fuel Cost: $0.93/lbs
Total Gross Income: $681,152
Pilot Pay: $1,084
Total Expenses: $73,876
Total Revenue: $471,640
Average Revenue: $113,525.40